sensor_id;sensor_type;location;lat;lon;timestamp;P1;durP1;ratioP1;P2;durP2;ratioP2
10661;SDS011;5379;51.034;7.006;2024-03-22T00:01:49;11.93;;;8.20;;
10661;SDS011;5379;51.034;7.006;2024-03-22T00:04:17;8.87;;;7.90;;
10661;SDS011;5379;51.034;7.006;2024-03-22T00:06:46;19.83;;;8.90;;
10661;SDS011;5379;51.034;7.006;2024-03-22T00:09:14;10.73;;;8.00;;
10661;SDS011;5379;51.034;7.006;2024-03-22T00:11:41;11.03;;;9.03;;
10661;SDS011;5379;51.034;7.006;2024-03-22T00:14:08;10.20;;;8.53;;
10661;SDS011;5379;51.034;7.006;2024-03-22T00:16:35;10.60;;;8.30;;
10661;SDS011;5379;51.034;7.006;2024-03-22T00:19:02;9.00;;;8.03;;
10661;SDS011;5379;51.034;7.006;2024-03-22T00:21:28;11.10;;;9.00;;
10661;SDS011;5379;51.034;7.006;2024-03-22T00:23:57;12.73;;;8.33;;
10661;SDS011;5379;51.034;7.006;2024-03-22T00:26:23;13.23;;;9.00;;
10661;SDS011;5379;51.034;7.006;2024-03-22T00:28:51;11.73;;;8.83;;
10661;SDS011;5379;51.034;7.006;2024-03-22T00:31:17;10.77;;;8.50;;
10661;SDS011;5379;51.034;7.006;2024-03-22T00:33:45;11.37;;;7.77;;
10661;SDS011;5379;51.034;7.006;2024-03-22T00:36:11;9.53;;;8.30;;
10661;SDS011;5379;51.034;7.006;2024-03-22T00:38:39;9.97;;;7.83;;
10661;SDS011;5379;51.034;7.006;2024-03-22T00:41:06;12.07;;;7.90;;
10661;SDS011;5379;51.034;7.006;2024-03-22T00:43:33;13.73;;;8.00;;
10661;SDS011;5379;51.034;7.006;2024-03-22T00:45:59;10.53;;;7.77;;
10661;SDS011;5379;51.034;7.006;2024-03-22T00:48:27;10.20;;;8.40;;
10661;SDS011;5379;51.034;7.006;2024-03-22T00:50:54;9.63;;;8.10;;
10661;SDS011;5379;51.034;7.006;2024-03-22T00:53:21;8.80;;;7.90;;
10661;SDS011;5379;51.034;7.006;2024-03-22T00:55:47;8.97;;;7.60;;
10661;SDS011;5379;51.034;7.006;2024-03-22T00:58:17;12.80;;;8.87;;
10661;SDS011;5379;51.034;7.006;2024-03-22T05:31:01;5.77;;;5.23;;
10661;SDS011;5379;51.034;7.006;2024-03-22T05:33:29;5.60;;;5.13;;
10661;SDS011;5379;51.034;7.006;2024-03-22T05:38:41;5.77;;;5.27;;
10661;SDS011;5379;51.034;7.006;2024-03-22T05:47:38;5.70;;;5.20;;
10661;SDS011;5379;51.034;7.006;2024-03-22T05:50:06;5.57;;;5.00;;
10661;SDS011;5379;51.034;7.006;2024-03-22T05:52:34;5.33;;;4.93;;
10661;SDS011;5379;51.034;7.006;2024-03-22T05:55:01;7.07;;;6.00;;
10661;SDS011;5379;51.034;7.006;2024-03-22T05:57:27;7.37;;;5.80;;
10661;SDS011;5379;51.034;7.006;2024-03-22T05:59:54;6.07;;;5.57;;
10661;SDS011;5379;51.034;7.006;2024-03-22T06:02:21;6.07;;;5.30;;
10661;SDS011;5379;51.034;7.006;2024-03-22T06:04:50;6.97;;;5.67;;
10661;SDS011;5379;51.034;7.006;2024-03-22T06:07:16;5.00;;;4.60;;
10661;SDS011;5379;51.034;7.006;2024-03-22T06:09:43;5.43;;;4.93;;
10661;SDS011;5379;51.034;7.006;2024-03-22T06:12:13;5.50;;;5.10;;
10661;SDS011;5379;51.034;7.006;2024-03-22T06:14:41;10.60;;;5.53;;
10661;SDS011;5379;51.034;7.006;2024-03-22T06:17:08;4.83;;;4.33;;
10661;SDS011;5379;51.034;7.006;2024-03-22T06:19:35;7.57;;;5.63;;
10661;SDS011;5379;51.034;7.006;2024-03-22T06:22:02;5.97;;;5.23;;
10661;SDS011;5379;51.034;7.006;2024-03-22T06:24:30;9.07;;;4.93;;
10661;SDS011;5379;51.034;7.006;2024-03-22T06:26:56;6.00;;;5.43;;
10661;SDS011;5379;51.034;7.006;2024-03-22T06:29:23;5.67;;;5.07;;
10661;SDS011;5379;51.034;7.006;2024-03-22T06:31:49;8.07;;;6.20;;
10661;SDS011;5379;51.034;7.006;2024-03-22T06:34:17;5.13;;;4.73;;
10661;SDS011;5379;51.034;7.006;2024-03-22T06:36:43;6.50;;;5.90;;
10661;SDS011;5379;51.034;7.006;2024-03-22T06:39:13;6.07;;;5.43;;
10661;SDS011;5379;51.034;7.006;2024-03-22T06:41:40;13.13;;;5.17;;
10661;SDS011;5379;51.034;7.006;2024-03-22T06:44:07;8.63;;;6.33;;
10661;SDS011;5379;51.034;7.006;2024-03-22T06:46:34;7.07;;;6.20;;
10661;SDS011;5379;51.034;7.006;2024-03-22T06:49:02;5.33;;;4.83;;
10661;SDS011;5379;51.034;7.006;2024-03-22T06:51:28;7.20;;;5.43;;
10661;SDS011;5379;51.034;7.006;2024-03-22T06:53:55;10.47;;;5.47;;
10661;SDS011;5379;51.034;7.006;2024-03-22T06:56:23;7.57;;;4.97;;
10661;SDS011;5379;51.034;7.006;2024-03-22T06:58:50;6.13;;;5.00;;
10661;SDS011;5379;51.034;7.006;2024-03-22T07:01:16;5.93;;;5.17;;
10661;SDS011;5379;51.034;7.006;2024-03-22T07:03:45;6.27;;;5.63;;
10661;SDS011;5379;51.034;7.006;2024-03-22T07:06:13;6.70;;;5.97;;
10661;SDS011;5379;51.034;7.006;2024-03-22T07:08:40;6.13;;;5.40;;
10661;SDS011;5379;51.034;7.006;2024-03-22T07:11:06;7.97;;;4.93;;
10661;SDS011;5379;51.034;7.006;2024-03-22T07:13:35;5.13;;;4.73;;
10661;SDS011;5379;51.034;7.006;2024-03-22T07:16:01;5.60;;;4.70;;
10661;SDS011;5379;51.034;7.006;2024-03-22T07:18:29;10.73;;;5.03;;
10661;SDS011;5379;51.034;7.006;2024-03-22T07:20:55;10.10;;;5.37;;
10661;SDS011;5379;51.034;7.006;2024-03-22T07:23:23;5.63;;;4.97;;
10661;SDS011;5379;51.034;7.006;2024-03-22T07:25:49;5.23;;;4.83;;
10661;SDS011;5379;51.034;7.006;2024-03-22T07:28:16;5.77;;;4.50;;
10661;SDS011;5379;51.034;7.006;2024-03-22T07:30:44;5.80;;;4.80;;
10661;SDS011;5379;51.034;7.006;2024-03-22T07:33:11;5.53;;;4.90;;
10661;SDS011;5379;51.034;7.006;2024-03-22T07:35:38;5.93;;;5.13;;
10661;SDS011;5379;51.034;7.006;2024-03-22T07:38:05;5.00;;;4.60;;
10661;SDS011;5379;51.034;7.006;2024-03-22T07:40:32;5.33;;;4.83;;
10661;SDS011;5379;51.034;7.006;2024-03-22T07:42:59;8.67;;;5.00;;
10661;SDS011;5379;51.034;7.006;2024-03-22T07:45:30;9.40;;;5.10;;
10661;SDS011;5379;51.034;7.006;2024-03-22T07:47:59;5.73;;;5.23;;
10661;SDS011;5379;51.034;7.006;2024-03-22T07:50:25;5.53;;;5.03;;
10661;SDS011;5379;51.034;7.006;2024-03-22T07:52:52;6.17;;;5.17;;
10661;SDS011;5379;51.034;7.006;2024-03-22T07:55:19;9.30;;;5.10;;
10661;SDS011;5379;51.034;7.006;2024-03-22T07:57:46;8.57;;;5.43;;
10661;SDS011;5379;51.034;7.006;2024-03-22T08:00:13;8.87;;;5.40;;
10661;SDS011;5379;51.034;7.006;2024-03-22T08:02:41;5.50;;;4.97;;
10661;SDS011;5379;51.034;7.006;2024-03-22T08:05:08;6.37;;;5.73;;
10661;SDS011;5379;51.034;7.006;2024-03-22T08:07:35;6.40;;;5.87;;
10661;SDS011;5379;51.034;7.006;2024-03-22T08:10:02;5.67;;;5.17;;
10661;SDS011;5379;51.034;7.006;2024-03-22T08:12:30;5.33;;;4.83;;
10661;SDS011;5379;51.034;7.006;2024-03-22T08:14:56;7.30;;;6.20;;
10661;SDS011;5379;51.034;7.006;2024-03-22T08:17:23;6.63;;;6.03;;
10661;SDS011;5379;51.034;7.006;2024-03-22T08:19:49;8.50;;;5.67;;
10661;SDS011;5379;51.034;7.006;2024-03-22T08:22:18;6.47;;;5.07;;
10661;SDS011;5379;51.034;7.006;2024-03-22T08:24:44;6.23;;;5.60;;
10661;SDS011;5379;51.034;7.006;2024-03-22T08:27:11;5.37;;;4.87;;
10661;SDS011;5379;51.034;7.006;2024-03-22T08:29:39;6.27;;;5.53;;
10661;SDS011;5379;51.034;7.006;2024-03-22T08:32:06;8.83;;;5.07;;
10661;SDS011;5379;51.034;7.006;2024-03-22T08:34:33;5.53;;;4.40;;
10661;SDS011;5379;51.034;7.006;2024-03-22T08:37:00;9.50;;;5.40;;
10661;SDS011;5379;51.034;7.006;2024-03-22T08:39:30;3.47;;;3.17;;
10661;SDS011;5379;51.034;7.006;2024-03-22T08:41:58;5.73;;;4.50;;
10661;SDS011;5379;51.034;7.006;2024-03-22T08:44:24;3.50;;;3.20;;
10661;SDS011;5379;51.034;7.006;2024-03-22T08:46:52;3.83;;;3.53;;
10661;SDS011;5379;51.034;7.006;2024-03-22T08:49:18;4.10;;;2.87;;
10661;SDS011;5379;51.034;7.006;2024-03-22T08:51:45;5.40;;;3.40;;
10661;SDS011;5379;51.034;7.006;2024-03-22T08:54:11;6.03;;;3.37;;
10661;SDS011;5379;51.034;7.006;2024-03-22T08:56:39;1.67;;;1.53;;
10661;SDS011;5379;51.034;7.006;2024-03-22T08:59:05;4.00;;;3.27;;
10661;SDS011;5379;51.034;7.006;2024-03-22T09:01:33;4.00;;;3.30;;
10661;SDS011;5379;51.034;7.006;2024-03-22T09:03:59;2.97;;;2.77;;
10661;SDS011;5379;51.034;7.006;2024-03-22T09:06:26;3.30;;;3.07;;
10661;SDS011;5379;51.034;7.006;2024-03-22T09:08:52;3.17;;;2.90;;
10661;SDS011;5379;51.034;7.006;2024-03-22T09:11:22;2.60;;;2.40;;
10661;SDS011;5379;51.034;7.006;2024-03-22T09:13:52;2.93;;;2.63;;
10661;SDS011;5379;51.034;7.006;2024-03-22T09:16:19;3.57;;;3.27;;
10661;SDS011;5379;51.034;7.006;2024-03-22T09:18:45;2.53;;;2.33;;
10661;SDS011;5379;51.034;7.006;2024-03-22T09:21:12;7.30;;;2.33;;
10661;SDS011;5379;51.034;7.006;2024-03-22T09:23:39;2.03;;;1.93;;
10661;SDS011;5379;51.034;7.006;2024-03-22T09:26:06;1.50;;;1.23;;
10661;SDS011;5379;51.034;7.006;2024-03-22T09:28:32;2.43;;;2.23;;
10661;SDS011;5379;51.034;7.006;2024-03-22T09:31:04;2.80;;;2.60;;
10661;SDS011;5379;51.034;7.006;2024-03-22T09:33:31;2.87;;;2.67;;
10661;SDS011;5379;51.034;7.006;2024-03-22T09:35:58;1.57;;;1.23;;
10661;SDS011;5379;51.034;7.006;2024-03-22T09:38:24;4.90;;;1.53;;
10661;SDS011;5379;51.034;7.006;2024-03-22T09:40:51;1.93;;;1.80;;
10661;SDS011;5379;51.034;7.006;2024-03-22T09:43:19;2.30;;;2.10;;
10661;SDS011;5379;51.034;7.006;2024-03-22T09:45:46;1.87;;;1.77;;
10661;SDS011;5379;51.034;7.006;2024-03-22T09:48:15;1.77;;;1.67;;
10661;SDS011;5379;51.034;7.006;2024-03-22T09:50:43;2.33;;;2.13;;
10661;SDS011;5379;51.034;7.006;2024-03-22T09:53:10;6.10;;;2.67;;
10661;SDS011;5379;51.034;7.006;2024-03-22T09:55:38;1.73;;;1.63;;
10661;SDS011;5379;51.034;7.006;2024-03-22T09:58:08;2.30;;;2.10;;
10661;SDS011;5379;51.034;7.006;2024-03-22T10:00:35;4.30;;;2.20;;
10661;SDS011;5379;51.034;7.006;2024-03-22T10:03:01;1.77;;;1.73;;
10661;SDS011;5379;51.034;7.006;2024-03-22T10:05:31;1.10;;;1.10;;
10661;SDS011;5379;51.034;7.006;2024-03-22T10:07:58;2.07;;;1.67;;
10661;SDS011;5379;51.034;7.006;2024-03-22T10:10:26;4.33;;;2.70;;
10661;SDS011;5379;51.034;7.006;2024-03-22T10:12:53;2.40;;;2.30;;
10661;SDS011;5379;51.034;7.006;2024-03-22T10:15:20;1.73;;;1.63;;
10661;SDS011;5379;51.034;7.006;2024-03-22T10:17:46;1.00;;;1.00;;
10661;SDS011;5379;51.034;7.006;2024-03-22T10:20:13;3.17;;;2.67;;
10661;SDS011;5379;51.034;7.006;2024-03-22T10:22:42;1.63;;;1.43;;
10661;SDS011;5379;51.034;7.006;2024-03-22T10:25:10;2.17;;;2.07;;
10661;SDS011;5379;51.034;7.006;2024-03-22T10:27:38;2.60;;;2.30;;
10661;SDS011;5379;51.034;7.006;2024-03-22T10:32:32;3.83;;;2.33;;
10661;SDS011;5379;51.034;7.006;2024-03-22T10:35:00;3.07;;;2.60;;
10661;SDS011;5379;51.034;7.006;2024-03-22T10:37:30;1.37;;;1.37;;
10661;SDS011;5379;51.034;7.006;2024-03-22T10:39:59;2.67;;;2.47;;
10661;SDS011;5379;51.034;7.006;2024-03-22T10:42:32;2.87;;;2.27;;
10661;SDS011;5379;51.034;7.006;2024-03-22T10:44:59;2.00;;;1.90;;
10661;SDS011;5379;51.034;7.006;2024-03-22T10:47:26;2.80;;;2.60;;
10661;SDS011;5379;51.034;7.006;2024-03-22T10:49:56;2.67;;;2.40;;
10661;SDS011;5379;51.034;7.006;2024-03-22T10:52:29;7.43;;;3.10;;
10661;SDS011;5379;51.034;7.006;2024-03-22T10:54:57;3.17;;;2.87;;
10661;SDS011;5379;51.034;7.006;2024-03-22T10:57:25;2.17;;;2.07;;
10661;SDS011;5379;51.034;7.006;2024-03-22T10:59:54;3.00;;;2.80;;
10661;SDS011;5379;51.034;7.006;2024-03-22T11:02:23;2.73;;;2.53;;
10661;SDS011;5379;51.034;7.006;2024-03-22T11:04:55;3.50;;;2.80;;
10661;SDS011;5379;51.034;7.006;2024-03-22T11:07:22;2.33;;;2.23;;
10661;SDS011;5379;51.034;7.006;2024-03-22T11:09:53;1.73;;;1.73;;
10661;SDS011;5379;51.034;7.006;2024-03-22T11:12:23;9.30;;;3.40;;
10661;SDS011;5379;51.034;7.006;2024-03-22T11:14:52;1.80;;;1.70;;
10661;SDS011;5379;51.034;7.006;2024-03-22T11:17:18;2.30;;;2.10;;
10661;SDS011;5379;51.034;7.006;2024-03-22T11:19:48;1.70;;;1.60;;
10661;SDS011;5379;51.034;7.006;2024-03-22T11:22:14;6.37;;;4.17;;
10661;SDS011;5379;51.034;7.006;2024-03-22T11:24:41;4.20;;;3.43;;
10661;SDS011;5379;51.034;7.006;2024-03-22T11:27:08;5.97;;;3.00;;
10661;SDS011;5379;51.034;7.006;2024-03-22T11:29:37;4.07;;;3.27;;
10661;SDS011;5379;51.034;7.006;2024-03-22T11:32:07;6.03;;;3.47;;
10661;SDS011;5379;51.034;7.006;2024-03-22T11:34:34;2.20;;;2.10;;
10661;SDS011;5379;51.034;7.006;2024-03-22T11:37:01;3.60;;;2.73;;
10661;SDS011;5379;51.034;7.006;2024-03-22T11:39:28;6.13;;;2.93;;
10661;SDS011;5379;51.034;7.006;2024-03-22T11:41:54;3.30;;;2.87;;
10661;SDS011;5379;51.034;7.006;2024-03-22T11:44:22;6.73;;;3.13;;
10661;SDS011;5379;51.034;7.006;2024-03-22T11:46:50;3.90;;;2.87;;
10661;SDS011;5379;51.034;7.006;2024-03-22T11:49:19;2.50;;;2.30;;
10661;SDS011;5379;51.034;7.006;2024-03-22T11:51:45;6.27;;;4.10;;
10661;SDS011;5379;51.034;7.006;2024-03-22T11:54:12;8.03;;;3.87;;
10661;SDS011;5379;51.034;7.006;2024-03-22T11:56:39;3.13;;;2.83;;
10661;SDS011;5379;51.034;7.006;2024-03-22T11:59:06;2.97;;;2.77;;
10661;SDS011;5379;51.034;7.006;2024-03-22T12:01:34;4.03;;;3.70;;
10661;SDS011;5379;51.034;7.006;2024-03-22T12:04:32;2.73;;;2.53;;
10661;SDS011;5379;51.034;7.006;2024-03-22T12:07:11;3.90;;;3.60;;
10661;SDS011;5379;51.034;7.006;2024-03-22T12:09:42;3.20;;;3.00;;
10661;SDS011;5379;51.034;7.006;2024-03-22T12:12:18;4.03;;;3.40;;
10661;SDS011;5379;51.034;7.006;2024-03-22T12:14:48;2.20;;;1.83;;
10661;SDS011;5379;51.034;7.006;2024-03-22T12:17:16;6.63;;;3.97;;
10661;SDS011;5379;51.034;7.006;2024-03-22T12:19:44;2.30;;;2.13;;
10661;SDS011;5379;51.034;7.006;2024-03-22T12:22:10;3.00;;;2.80;;
10661;SDS011;5379;51.034;7.006;2024-03-22T12:24:37;2.23;;;2.03;;
10661;SDS011;5379;51.034;7.006;2024-03-22T12:27:03;1.87;;;1.77;;
10661;SDS011;5379;51.034;7.006;2024-03-22T12:29:31;2.47;;;2.37;;
10661;SDS011;5379;51.034;7.006;2024-03-22T12:31:57;5.33;;;4.20;;
10661;SDS011;5379;51.034;7.006;2024-03-22T12:34:26;2.63;;;2.43;;
10661;SDS011;5379;51.034;7.006;2024-03-22T12:36:54;2.93;;;2.73;;
10661;SDS011;5379;51.034;7.006;2024-03-22T12:39:21;2.00;;;1.87;;
10661;SDS011;5379;51.034;7.006;2024-03-22T12:41:47;2.83;;;2.63;;
10661;SDS011;5379;51.034;7.006;2024-03-22T12:44:14;3.40;;;2.93;;
10661;SDS011;5379;51.034;7.006;2024-03-22T12:46:40;2.30;;;2.10;;
10661;SDS011;5379;51.034;7.006;2024-03-22T12:49:08;5.80;;;4.27;;
10661;SDS011;5379;51.034;7.006;2024-03-22T12:51:34;2.97;;;2.77;;
10661;SDS011;5379;51.034;7.006;2024-03-22T12:54:03;3.33;;;3.13;;
10661;SDS011;5379;51.034;7.006;2024-03-22T12:56:30;4.63;;;4.10;;
10661;SDS011;5379;51.034;7.006;2024-03-22T12:58:58;5.00;;;4.23;;
10661;SDS011;5379;51.034;7.006;2024-03-22T13:01:24;3.03;;;2.83;;
10661;SDS011;5379;51.034;7.006;2024-03-22T13:03:51;3.73;;;3.43;;
10661;SDS011;5379;51.034;7.006;2024-03-22T13:06:17;4.10;;;2.90;;
10661;SDS011;5379;51.034;7.006;2024-03-22T13:08:44;3.07;;;2.87;;
10661;SDS011;5379;51.034;7.006;2024-03-22T13:11:12;2.40;;;2.30;;
10661;SDS011;5379;51.034;7.006;2024-03-22T13:13:42;3.33;;;3.03;;
10661;SDS011;5379;51.034;7.006;2024-03-22T13:16:09;3.43;;;2.77;;
10661;SDS011;5379;51.034;7.006;2024-03-22T13:18:39;4.70;;;4.27;;
10661;SDS011;5379;51.034;7.006;2024-03-22T13:21:05;5.33;;;3.80;;
10661;SDS011;5379;51.034;7.006;2024-03-22T13:23:32;3.53;;;3.30;;
10661;SDS011;5379;51.034;7.006;2024-03-22T13:26:02;8.00;;;2.10;;
10661;SDS011;5379;51.034;7.006;2024-03-22T13:28:31;6.70;;;4.57;;
10661;SDS011;5379;51.034;7.006;2024-03-22T13:31:00;4.87;;;3.10;;
10661;SDS011;5379;51.034;7.006;2024-03-22T13:33:29;2.30;;;2.17;;
10661;SDS011;5379;51.034;7.006;2024-03-22T13:35:55;2.57;;;2.47;;
10661;SDS011;5379;51.034;7.006;2024-03-22T13:38:23;3.37;;;3.17;;
10661;SDS011;5379;51.034;7.006;2024-03-22T13:40:53;3.83;;;3.53;;
10661;SDS011;5379;51.034;7.006;2024-03-22T13:43:20;5.67;;;4.30;;
10661;SDS011;5379;51.034;7.006;2024-03-22T13:45:48;4.93;;;3.80;;
10661;SDS011;5379;51.034;7.006;2024-03-22T13:48:19;3.57;;;3.33;;
10661;SDS011;5379;51.034;7.006;2024-03-22T13:50:49;4.53;;;3.97;;
10661;SDS011;5379;51.034;7.006;2024-03-22T13:53:16;6.10;;;3.23;;
10661;SDS011;5379;51.034;7.006;2024-03-22T13:55:42;1.60;;;1.60;;
10661;SDS011;5379;51.034;7.006;2024-03-22T13:58:09;6.53;;;2.07;;
10661;SDS011;5379;51.034;7.006;2024-03-22T14:00:35;11.87;;;4.30;;
10661;SDS011;5379;51.034;7.006;2024-03-22T14:03:04;1.10;;;1.10;;
10661;SDS011;5379;51.034;7.006;2024-03-22T14:05:30;4.17;;;3.87;;
10661;SDS011;5379;51.034;7.006;2024-03-22T14:07:57;15.33;;;3.40;;
10661;SDS011;5379;51.034;7.006;2024-03-22T14:10:23;5.73;;;4.17;;
10661;SDS011;5379;51.034;7.006;2024-03-22T14:12:51;7.37;;;3.43;;
10661;SDS011;5379;51.034;7.006;2024-03-22T14:15:17;3.43;;;3.23;;
10661;SDS011;5379;51.034;7.006;2024-03-22T14:17:44;5.23;;;4.63;;
10661;SDS011;5379;51.034;7.006;2024-03-22T14:20:12;7.50;;;5.27;;
10661;SDS011;5379;51.034;7.006;2024-03-22T14:22:38;7.47;;;5.03;;
10661;SDS011;5379;51.034;7.006;2024-03-22T14:25:05;1.87;;;1.77;;
10661;SDS011;5379;51.034;7.006;2024-03-22T14:27:32;5.60;;;4.43;;
10661;SDS011;5379;51.034;7.006;2024-03-22T14:30:00;4.10;;;2.67;;
10661;SDS011;5379;51.034;7.006;2024-03-22T14:32:30;4.63;;;3.80;;
10661;SDS011;5379;51.034;7.006;2024-03-22T14:34:56;3.17;;;2.60;;
10661;SDS011;5379;51.034;7.006;2024-03-22T14:37:25;4.17;;;2.10;;
10661;SDS011;5379;51.034;7.006;2024-03-22T14:39:51;2.80;;;2.03;;
10661;SDS011;5379;51.034;7.006;2024-03-22T14:42:18;6.60;;;3.97;;
10661;SDS011;5379;51.034;7.006;2024-03-22T14:44:44;2.97;;;2.70;;
10661;SDS011;5379;51.034;7.006;2024-03-22T14:47:12;5.27;;;4.77;;
10661;SDS011;5379;51.034;7.006;2024-03-22T14:49:41;4.80;;;4.40;;
10661;SDS011;5379;51.034;7.006;2024-03-22T14:52:08;6.40;;;4.13;;
10661;SDS011;5379;51.034;7.006;2024-03-22T14:54:35;2.20;;;2.10;;
10661;SDS011;5379;51.034;7.006;2024-03-22T14:57:02;6.00;;;4.60;;
10661;SDS011;5379;51.034;7.006;2024-03-22T14:59:29;5.43;;;4.20;;
10661;SDS011;5379;51.034;7.006;2024-03-22T15:01:56;4.37;;;3.97;;
10661;SDS011;5379;51.034;7.006;2024-03-22T15:04:22;5.93;;;5.07;;
10661;SDS011;5379;51.034;7.006;2024-03-22T15:06:49;11.70;;;5.80;;
10661;SDS011;5379;51.034;7.006;2024-03-22T15:09:15;5.90;;;5.13;;
10661;SDS011;5379;51.034;7.006;2024-03-22T15:11:44;5.83;;;3.67;;
10661;SDS011;5379;51.034;7.006;2024-03-22T15:14:11;9.00;;;6.33;;
10661;SDS011;5379;51.034;7.006;2024-03-22T15:16:38;6.67;;;5.87;;
10661;SDS011;5379;51.034;7.006;2024-03-22T15:19:06;3.47;;;3.27;;
10661;SDS011;5379;51.034;7.006;2024-03-22T15:21:33;7.77;;;4.97;;
10661;SDS011;5379;51.034;7.006;2024-03-22T15:23:59;7.47;;;5.83;;
10661;SDS011;5379;51.034;7.006;2024-03-22T15:26:25;7.20;;;4.20;;
10661;SDS011;5379;51.034;7.006;2024-03-22T15:28:54;8.00;;;5.47;;
10661;SDS011;5379;51.034;7.006;2024-03-22T15:31:20;7.27;;;5.40;;
10661;SDS011;5379;51.034;7.006;2024-03-22T15:33:48;7.10;;;6.37;;
10661;SDS011;5379;51.034;7.006;2024-03-22T15:36:14;6.10;;;5.50;;
10661;SDS011;5379;51.034;7.006;2024-03-22T15:38:41;5.57;;;5.07;;
10661;SDS011;5379;51.034;7.006;2024-03-22T15:41:07;8.50;;;5.17;;
10661;SDS011;5379;51.034;7.006;2024-03-22T15:43:35;7.40;;;6.13;;
10661;SDS011;5379;51.034;7.006;2024-03-22T15:46:02;8.03;;;5.93;;
10661;SDS011;5379;51.034;7.006;2024-03-22T15:48:29;6.67;;;6.00;;
10661;SDS011;5379;51.034;7.006;2024-03-22T15:50:55;9.87;;;5.37;;
10661;SDS011;5379;51.034;7.006;2024-03-22T15:53:24;9.30;;;5.50;;
10661;SDS011;5379;51.034;7.006;2024-03-22T15:55:50;5.60;;;4.80;;
10661;SDS011;5379;51.034;7.006;2024-03-22T15:58:17;9.83;;;4.60;;
10661;SDS011;5379;51.034;7.006;2024-03-22T16:00:44;6.83;;;5.13;;
10661;SDS011;5379;51.034;7.006;2024-03-22T16:03:12;6.43;;;4.47;;
10661;SDS011;5379;51.034;7.006;2024-03-22T16:05:41;8.53;;;5.03;;
10661;SDS011;5379;51.034;7.006;2024-03-22T16:08:16;4.97;;;4.47;;
10661;SDS011;5379;51.034;7.006;2024-03-22T16:10:42;5.97;;;5.27;;
10661;SDS011;5379;51.034;7.006;2024-03-22T16:13:09;5.40;;;4.90;;
10661;SDS011;5379;51.034;7.006;2024-03-22T16:15:35;6.60;;;4.40;;
10661;SDS011;5379;51.034;7.006;2024-03-22T16:18:02;4.77;;;4.37;;
10661;SDS011;5379;51.034;7.006;2024-03-22T16:20:29;5.10;;;4.63;;
10661;SDS011;5379;51.034;7.006;2024-03-22T16:22:56;9.03;;;6.40;;
10661;SDS011;5379;51.034;7.006;2024-03-22T16:25:22;5.07;;;4.43;;
10661;SDS011;5379;51.034;7.006;2024-03-22T16:27:49;9.50;;;6.47;;
10661;SDS011;5379;51.034;7.006;2024-03-22T16:30:15;6.27;;;5.63;;
10661;SDS011;5379;51.034;7.006;2024-03-22T16:32:43;8.23;;;7.40;;
10661;SDS011;5379;51.034;7.006;2024-03-22T16:35:12;7.10;;;6.40;;
10661;SDS011;5379;51.034;7.006;2024-03-22T16:37:41;8.53;;;6.83;;
10661;SDS011;5379;51.034;7.006;2024-03-22T16:40:07;10.60;;;7.27;;
10661;SDS011;5379;51.034;7.006;2024-03-22T16:42:42;10.47;;;7.53;;
10661;SDS011;5379;51.034;7.006;2024-03-22T16:45:09;8.00;;;7.13;;
10661;SDS011;5379;51.034;7.006;2024-03-22T16:47:36;10.03;;;8.27;;
10661;SDS011;5379;51.034;7.006;2024-03-22T16:50:02;8.87;;;7.93;;
10661;SDS011;5379;51.034;7.006;2024-03-22T16:52:29;5.80;;;5.20;;
10661;SDS011;5379;51.034;7.006;2024-03-22T16:54:58;7.70;;;5.33;;
10661;SDS011;5379;51.034;7.006;2024-03-22T16:57:25;7.70;;;6.90;;
10661;SDS011;5379;51.034;7.006;2024-03-22T16:59:51;8.43;;;6.90;;
10661;SDS011;5379;51.034;7.006;2024-03-22T17:02:18;11.40;;;8.00;;
10661;SDS011;5379;51.034;7.006;2024-03-22T17:04:44;12.30;;;8.93;;
10661;SDS011;5379;51.034;7.006;2024-03-22T17:07:11;9.13;;;8.27;;
10661;SDS011;5379;51.034;7.006;2024-03-22T17:09:38;10.73;;;8.27;;
10661;SDS011;5379;51.034;7.006;2024-03-22T17:12:06;8.23;;;7.00;;
10661;SDS011;5379;51.034;7.006;2024-03-22T17:14:33;8.97;;;8.10;;
10661;SDS011;5379;51.034;7.006;2024-03-22T17:17:00;8.60;;;7.57;;
10661;SDS011;5379;51.034;7.006;2024-03-22T17:19:25;12.13;;;7.87;;
10661;SDS011;5379;51.034;7.006;2024-03-22T17:21:53;9.27;;;7.63;;
10661;SDS011;5379;51.034;7.006;2024-03-22T17:24:19;12.13;;;7.83;;
10661;SDS011;5379;51.034;7.006;2024-03-22T17:26:46;8.77;;;7.93;;
10661;SDS011;5379;51.034;7.006;2024-03-22T17:29:13;10.53;;;6.80;;
10661;SDS011;5379;51.034;7.006;2024-03-22T17:31:40;9.50;;;8.07;;
10661;SDS011;5379;51.034;7.006;2024-03-22T17:34:07;9.50;;;7.60;;
10661;SDS011;5379;51.034;7.006;2024-03-22T17:36:34;10.83;;;6.70;;
10661;SDS011;5379;51.034;7.006;2024-03-22T17:39:01;9.77;;;8.10;;
10661;SDS011;5379;51.034;7.006;2024-03-22T17:41:27;6.77;;;5.93;;
10661;SDS011;5379;51.034;7.006;2024-03-22T17:43:54;4.83;;;4.43;;
10661;SDS011;5379;51.034;7.006;2024-03-22T17:46:22;6.60;;;6.00;;
10661;SDS011;5379;51.034;7.006;2024-03-22T17:48:48;7.03;;;6.20;;
10661;SDS011;5379;51.034;7.006;2024-03-22T17:51:15;5.27;;;4.77;;
10661;SDS011;5379;51.034;7.006;2024-03-22T17:53:43;6.20;;;4.60;;
10661;SDS011;5379;51.034;7.006;2024-03-22T17:56:10;4.73;;;4.30;;
10661;SDS011;5379;51.034;7.006;2024-03-22T17:58:36;5.60;;;5.10;;
10661;SDS011;5379;51.034;7.006;2024-03-22T18:01:03;6.67;;;4.03;;
10661;SDS011;5379;51.034;7.006;2024-03-22T18:03:30;5.00;;;4.57;;
10661;SDS011;5379;51.034;7.006;2024-03-22T18:05:57;3.87;;;3.60;;
10661;SDS011;5379;51.034;7.006;2024-03-22T18:08:28;9.40;;;4.57;;
10661;SDS011;5379;51.034;7.006;2024-03-22T18:10:55;4.00;;;3.70;;
10661;SDS011;5379;51.034;7.006;2024-03-22T18:13:22;5.80;;;5.13;;
10661;SDS011;5379;51.034;7.006;2024-03-22T18:15:50;4.80;;;4.23;;
10661;SDS011;5379;51.034;7.006;2024-03-22T18:18:16;5.20;;;4.53;;
10661;SDS011;5379;51.034;7.006;2024-03-22T18:20:47;4.23;;;3.93;;
10661;SDS011;5379;51.034;7.006;2024-03-22T18:23:17;7.47;;;4.00;;
10661;SDS011;5379;51.034;7.006;2024-03-22T18:25:46;4.07;;;3.77;;
10661;SDS011;5379;51.034;7.006;2024-03-22T18:28:13;5.17;;;4.60;;
10661;SDS011;5379;51.034;7.006;2024-03-22T18:30:41;4.10;;;3.80;;
10661;SDS011;5379;51.034;7.006;2024-03-22T18:33:08;3.70;;;3.40;;
10661;SDS011;5379;51.034;7.006;2024-03-22T18:35:42;3.87;;;3.63;;
10661;SDS011;5379;51.034;7.006;2024-03-22T18:38:11;4.90;;;4.40;;
10661;SDS011;5379;51.034;7.006;2024-03-22T18:40:39;4.93;;;4.30;;
10661;SDS011;5379;51.034;7.006;2024-03-22T18:43:06;4.33;;;3.93;;
10661;SDS011;5379;51.034;7.006;2024-03-22T18:45:37;4.30;;;3.97;;
10661;SDS011;5379;51.034;7.006;2024-03-22T18:48:06;1.50;;;1.50;;
10661;SDS011;5379;51.034;7.006;2024-03-22T18:50:36;4.27;;;4.00;;
10661;SDS011;5379;51.034;7.006;2024-03-22T18:53:07;4.93;;;4.30;;
10661;SDS011;5379;51.034;7.006;2024-03-22T18:55:40;4.43;;;4.07;;
10661;SDS011;5379;51.034;7.006;2024-03-22T18:58:08;4.50;;;3.97;;
10661;SDS011;5379;51.034;7.006;2024-03-22T19:00:38;4.07;;;3.77;;
10661;SDS011;5379;51.034;7.006;2024-03-22T19:03:05;4.77;;;4.37;;
10661;SDS011;5379;51.034;7.006;2024-03-22T19:05:32;9.03;;;4.40;;
10661;SDS011;5379;51.034;7.006;2024-03-22T19:07:59;5.13;;;4.67;;
10661;SDS011;5379;51.034;7.006;2024-03-22T19:10:26;4.53;;;4.23;;
10661;SDS011;5379;51.034;7.006;2024-03-22T19:12:55;4.87;;;4.47;;
10661;SDS011;5379;51.034;7.006;2024-03-22T19:15:22;4.73;;;4.33;;
10661;SDS011;5379;51.034;7.006;2024-03-22T19:17:50;5.10;;;4.27;;
10661;SDS011;5379;51.034;7.006;2024-03-22T19:20:18;5.07;;;4.60;;
10661;SDS011;5379;51.034;7.006;2024-03-22T19:22:44;4.93;;;4.53;;
10661;SDS011;5379;51.034;7.006;2024-03-22T19:25:12;4.10;;;3.80;;
10661;SDS011;5379;51.034;7.006;2024-03-22T19:27:38;3.97;;;3.63;;
10661;SDS011;5379;51.034;7.006;2024-03-22T19:30:07;5.30;;;4.20;;
10661;SDS011;5379;51.034;7.006;2024-03-22T19:32:34;4.73;;;4.33;;
10661;SDS011;5379;51.034;7.006;2024-03-22T19:35:01;6.87;;;4.40;;
10661;SDS011;5379;51.034;7.006;2024-03-22T19:37:27;5.20;;;4.07;;
10661;SDS011;5379;51.034;7.006;2024-03-22T19:39:55;4.37;;;3.97;;
10661;SDS011;5379;51.034;7.006;2024-03-22T19:42:21;3.83;;;3.60;;
10661;SDS011;5379;51.034;7.006;2024-03-22T19:44:49;4.13;;;3.73;;